createdAt,value
2019-03-31T00:00:11.098Z,99.99
2019-03-31T00:01:11.068Z,99.99
2019-03-31T00:02:11.041Z,99.99
2019-03-31T00:03:11.003Z,99.99
2019-03-31T00:04:10.940Z,99.99
2019-03-31T00:05:10.939Z,99.99
2019-03-31T00:06:10.885Z,99.99
2019-03-31T00:07:10.845Z,99.99
2019-03-31T00:08:10.812Z,99.99
2019-03-31T00:09:10.754Z,99.99
2019-03-31T00:10:10.775Z,99.99
2019-03-31T00:11:10.717Z,99.99
2019-03-31T00:12:10.650Z,99.99
2019-03-31T00:13:10.605Z,99.99
2019-03-31T00:14:10.547Z,99.99
2019-03-31T00:15:10.538Z,99.99
2019-03-31T00:16:10.485Z,99.99
2019-03-31T00:17:10.441Z,99.99
2019-03-31T00:18:10.403Z,99.99
2019-03-31T00:19:10.426Z,99.99
2019-03-31T00:20:10.349Z,99.99
2019-03-31T00:21:10.267Z,99.99
2019-03-31T00:22:10.265Z,99.99
2019-03-31T00:23:10.201Z,99.99
2019-03-31T00:24:10.171Z,99.99
2019-03-31T00:25:10.138Z,99.99
2019-03-31T00:26:10.067Z,99.99
2019-03-31T00:27:10.039Z,99.99
2019-03-31T00:28:10.029Z,99.99
2019-03-31T00:29:09.993Z,99.99
2019-03-31T00:30:10.033Z,99.99
2019-03-31T00:31:21.585Z,99.99
2019-03-31T00:32:09.842Z,99.99
2019-03-31T00:33:09.808Z,99.99
2019-03-31T00:34:09.775Z,99.99
2019-03-31T00:35:09.723Z,99.99
2019-03-31T00:36:09.724Z,99.99
2019-03-31T00:37:09.695Z,99.99
2019-03-31T00:38:09.631Z,99.99
2019-03-31T00:39:09.575Z,99.99
2019-03-31T00:40:09.523Z,99.99
2019-03-31T00:41:09.505Z,99.99
2019-03-31T00:42:09.437Z,99.99
2019-03-31T00:43:09.415Z,99.99
2019-03-31T00:44:09.379Z,99.99
2019-03-31T00:45:09.323Z,99.99
2019-03-31T00:46:09.288Z,99.99
2019-03-31T00:47:09.274Z,99.99
2019-03-31T00:48:09.232Z,99.72
2019-03-31T00:49:09.304Z,97.73
2019-03-31T00:50:09.115Z,97.54
2019-03-31T00:51:09.089Z,99.91
2019-03-31T00:52:09.066Z,99.99
2019-03-31T00:53:09.111Z,99.99
2019-03-31T00:54:09.001Z,99.99
2019-03-31T00:55:08.918Z,99.99
2019-03-31T00:56:08.875Z,99.99
2019-03-31T00:57:08.827Z,99.99
2019-03-31T00:58:08.805Z,99.99
2019-03-31T00:59:08.771Z,99.99
2019-03-31T01:00:08.712Z,99.99
2019-03-31T01:01:08.750Z,99.99
2019-03-31T01:02:08.646Z,99.99
2019-03-31T01:03:08.616Z,99.99
2019-03-31T01:04:08.589Z,99.99
2019-03-31T01:05:08.550Z,99.99
2019-03-31T01:06:08.507Z,99.99
2019-03-31T01:07:08.442Z,99.29
2019-03-31T01:08:08.428Z,94.60
2019-03-31T01:09:08.354Z,93.37
2019-03-31T01:10:08.309Z,93.56
2019-03-31T01:11:08.283Z,94.79
2019-03-31T01:12:08.252Z,95.36
2019-03-31T01:13:08.216Z,95.55
2019-03-31T01:14:08.871Z,95.84
2019-03-31T01:15:08.114Z,95.84
2019-03-31T01:16:08.065Z,95.17
2019-03-31T01:17:08.045Z,95.07
2019-03-31T01:18:08.004Z,94.60
2019-03-31T01:19:07.977Z,95.26
2019-03-31T01:20:07.921Z,93.84
2019-03-31T01:21:07.877Z,92.99
2019-03-31T01:22:07.842Z,92.61
2019-03-31T01:23:07.794Z,92.04
2019-03-31T01:24:07.747Z,92.61
2019-03-31T01:25:07.739Z,94.79
2019-03-31T01:26:07.685Z,95.84
2019-03-31T01:27:07.625Z,97.07
2019-03-31T01:28:07.594Z,97.35
2019-03-31T01:29:07.548Z,96.50
2019-03-31T01:30:07.539Z,95.36
2019-03-31T01:31:07.463Z,94.23
2019-03-31T01:32:07.442Z,92.61
2019-03-31T01:33:07.378Z,92.14
2019-03-31T01:34:07.375Z,92.42
2019-03-31T01:35:07.312Z,93.56
2019-03-31T01:36:07.265Z,94.13
2019-03-31T01:37:07.230Z,94.51
2019-03-31T01:38:07.885Z,95.55
2019-03-31T01:39:07.151Z,96.03
2019-03-31T01:40:07.127Z,95.07
2019-03-31T01:41:07.070Z,94.32
2019-03-31T01:42:07.050Z,93.27
2019-03-31T01:43:06.977Z,93.61
2019-03-31T01:44:06.950Z,93.70
2019-03-31T01:45:06.932Z,94.84
2019-03-31T01:46:06.899Z,95.41
2019-03-31T01:47:06.838Z,98.16
2019-03-31T01:48:06.800Z,99.39
2019-03-31T01:49:06.790Z,99.99
2019-03-31T01:50:06.733Z,99.99
2019-03-31T01:51:06.695Z,98.54
2019-03-31T01:52:06.636Z,97.97
2019-03-31T01:53:06.595Z,97.21
2019-03-31T01:54:06.541Z,97.59
2019-03-31T01:55:06.495Z,99.30
2019-03-31T01:56:06.501Z,99.99
2019-03-31T01:57:06.415Z,99.99
2019-03-31T01:58:06.575Z,99.99
2019-03-31T01:59:06.363Z,99.99
2019-03-31T02:00:06.312Z,99.99
2019-03-31T02:01:06.891Z,99.99
2019-03-31T02:02:06.228Z,99.99
2019-03-31T02:03:06.233Z,99.99
2019-03-31T02:04:06.156Z,99.99
2019-03-31T02:05:06.100Z,99.99
2019-03-31T02:06:06.088Z,99.99
2019-03-31T02:07:06.024Z,99.63
2019-03-31T02:08:05.978Z,99.53
2019-03-31T02:09:05.949Z,99.99
2019-03-31T02:10:05.892Z,99.99
2019-03-31T02:11:05.855Z,99.99
2019-03-31T02:12:05.851Z,99.99
2019-03-31T02:13:05.792Z,99.99
2019-03-31T02:14:05.789Z,99.99
2019-03-31T02:15:05.733Z,99.99
2019-03-31T02:16:05.663Z,99.99
2019-03-31T02:17:05.625Z,99.99
2019-03-31T02:18:05.587Z,99.99
2019-03-31T02:19:05.547Z,98.25
2019-03-31T02:20:05.512Z,97.97
2019-03-31T02:21:05.464Z,94.56
2019-03-31T02:22:05.431Z,92.09
2019-03-31T02:23:05.415Z,90.86
2019-03-31T02:24:05.348Z,91.24
2019-03-31T02:25:05.317Z,89.48
2019-03-31T02:26:05.257Z,89.11
2019-03-31T02:27:05.218Z,90.10
2019-03-31T02:28:05.213Z,88.92
2019-03-31T02:29:05.137Z,88.16
2019-03-31T02:30:05.111Z,89.48
2019-03-31T02:31:05.051Z,92.04
2019-03-31T02:32:22.093Z,92.47
2019-03-31T02:33:05.024Z,93.51
2019-03-31T02:34:04.951Z,93.99
2019-03-31T02:35:04.911Z,94.27
2019-03-31T02:36:04.903Z,94.37
2019-03-31T02:37:04.820Z,94.18
2019-03-31T02:38:04.786Z,93.04
2019-03-31T02:39:04.743Z,93.04
2019-03-31T02:40:04.721Z,91.71
2019-03-31T02:41:04.657Z,91.24
2019-03-31T02:42:04.604Z,92.00
2019-03-31T02:43:04.607Z,93.04
2019-03-31T02:44:04.532Z,94.08
2019-03-31T02:45:04.494Z,94.84
2019-03-31T02:46:04.444Z,93.23
2019-03-31T02:47:04.423Z,91.24
2019-03-31T02:48:04.387Z,90.10
2019-03-31T02:49:04.360Z,90.20
2019-03-31T02:50:04.302Z,88.96
2019-03-31T02:51:04.269Z,87.64
2019-03-31T02:52:04.206Z,85.50
2019-03-31T02:53:04.180Z,84.27
2019-03-31T02:54:04.193Z,83.61
2019-03-31T02:55:04.087Z,84.36
2019-03-31T02:56:04.059Z,84.08
2019-03-31T02:57:04.107Z,86.35
2019-03-31T02:58:03.994Z,91.19
2019-03-31T02:59:03.952Z,93.51
2019-03-31T03:00:03.919Z,94.46
2019-03-31T03:01:03.862Z,94.56
2019-03-31T03:02:03.820Z,93.23
2019-03-31T03:03:03.797Z,92.28
2019-03-31T03:04:07.733Z,90.67
2019-03-31T03:05:17.699Z,89.82
2019-03-31T03:06:03.729Z,89.82
2019-03-31T03:07:03.619Z,90.29
2019-03-31T03:08:03.563Z,90.67
2019-03-31T03:09:03.528Z,91.81
2019-03-31T03:10:03.473Z,93.13
2019-03-31T03:11:03.454Z,94.65
2019-03-31T03:12:03.411Z,94.74
2019-03-31T03:13:03.364Z,95.50
2019-03-31T03:14:03.355Z,94.74
2019-03-31T03:15:03.287Z,93.61
2019-03-31T03:16:03.341Z,94.37
2019-03-31T03:17:03.244Z,95.41
2019-03-31T03:18:03.166Z,94.84
2019-03-31T03:19:03.152Z,94.27
2019-03-31T03:20:03.067Z,95.50
2019-03-31T03:21:03.046Z,95.55
2019-03-31T03:22:02.998Z,95.17
2019-03-31T03:23:02.989Z,94.89
2019-03-31T03:24:02.955Z,95.64
2019-03-31T03:25:02.929Z,94.89
2019-03-31T03:26:02.859Z,94.51
2019-03-31T03:27:03.405Z,92.99
2019-03-31T03:28:02.775Z,92.80
2019-03-31T03:29:02.698Z,91.86
2019-03-31T03:30:02.710Z,89.49
2019-03-31T03:31:03.009Z,87.64
2019-03-31T03:32:02.640Z,87.26
2019-03-31T03:33:14.964Z,86.79
2019-03-31T03:34:02.504Z,86.98
2019-03-31T03:35:02.471Z,86.22
2019-03-31T03:36:02.456Z,86.69
2019-03-31T03:37:02.384Z,87.07
2019-03-31T03:38:02.347Z,87.73
2019-03-31T03:39:02.293Z,88.40
2019-03-31T03:40:02.289Z,88.96
2019-03-31T03:41:02.226Z,88.40
2019-03-31T03:42:02.256Z,88.02
2019-03-31T03:43:02.176Z,87.26
2019-03-31T03:44:02.807Z,85.74
2019-03-31T03:45:02.129Z,86.22
2019-03-31T03:46:02.159Z,87.16
2019-03-31T03:47:02.909Z,88.21
2019-03-31T03:48:02.912Z,88.49
2019-03-31T03:49:01.956Z,88.96
2019-03-31T03:50:01.881Z,88.96
2019-03-31T03:51:01.812Z,89.25
2019-03-31T03:52:01.756Z,88.68
2019-03-31T03:53:01.736Z,89.25
2019-03-31T03:54:01.738Z,88.92
2019-03-31T03:55:01.645Z,88.96
2019-03-31T03:56:01.653Z,91.10
2019-03-31T03:57:01.594Z,92.43
2019-03-31T03:58:01.518Z,93.27
2019-03-31T03:59:01.468Z,92.14
2019-03-31T04:00:01.461Z,89.87
2019-03-31T04:01:01.389Z,88.17
2019-03-31T04:02:01.407Z,87.31
2019-03-31T04:03:01.307Z,87.16
2019-03-31T04:04:01.303Z,87.69
2019-03-31T04:05:01.264Z,88.17
2019-03-31T04:06:01.208Z,87.78
2019-03-31T04:07:01.167Z,87.69
2019-03-31T04:08:01.147Z,86.93
2019-03-31T04:09:01.158Z,87.12
2019-03-31T04:10:01.068Z,86.27
2019-03-31T04:11:01.011Z,87.31
2019-03-31T04:12:00.960Z,87.59
2019-03-31T04:13:00.927Z,87.98
2019-03-31T04:14:00.865Z,87.12
2019-03-31T04:15:00.836Z,87.02
2019-03-31T04:16:00.817Z,87.59
2019-03-31T04:17:00.751Z,89.01
2019-03-31T04:18:00.711Z,90.91
2019-03-31T04:19:01.417Z,92.52
2019-03-31T04:20:00.653Z,94.51
2019-03-31T04:21:00.639Z,95.40
2019-03-31T04:22:00.600Z,94.27
2019-03-31T04:23:00.500Z,90.91
2019-03-31T04:24:00.474Z,89.20
2019-03-31T04:25:00.724Z,88.64
2019-03-31T04:26:00.440Z,88.26
2019-03-31T04:27:00.325Z,88.64
2019-03-31T04:28:00.287Z,88.73
2019-03-31T04:29:00.245Z,88.64
2019-03-31T04:30:00.753Z,87.78
2019-03-31T04:31:00.158Z,87.31
2019-03-31T04:32:00.130Z,86.36
2019-03-31T04:33:00.116Z,86.27
2019-03-31T04:34:00.071Z,87.50
2019-03-31T04:35:00.004Z,87.40
2019-03-31T04:35:59.952Z,87.02
2019-03-31T04:36:59.920Z,87.69
2019-03-31T04:37:59.909Z,87.78
2019-03-31T04:39:00.476Z,87.12
2019-03-31T04:39:59.796Z,86.65
2019-03-31T04:40:59.829Z,86.18
2019-03-31T04:41:59.731Z,86.46
2019-03-31T04:42:59.670Z,86.74
2019-03-31T04:43:59.624Z,88.64
2019-03-31T04:44:59.598Z,90.77
2019-03-31T04:45:59.543Z,92.00
2019-03-31T04:46:59.538Z,91.81
2019-03-31T04:47:59.479Z,90.86
2019-03-31T04:48:59.489Z,92.00
2019-03-31T04:49:59.386Z,92.47
2019-03-31T04:50:59.374Z,92.94
2019-03-31T04:51:59.293Z,92.19
2019-03-31T04:52:59.253Z,92.19
2019-03-31T04:53:59.225Z,91.34
2019-03-31T04:54:59.176Z,89.06
2019-03-31T04:55:59.147Z,87.36
2019-03-31T04:56:59.094Z,86.51
2019-03-31T04:57:59.154Z,85.70
2019-03-31T04:58:59.003Z,84.75
2019-03-31T04:59:58.961Z,84.66
2019-03-31T05:00:58.915Z,85.23
2019-03-31T05:01:58.898Z,87.27
2019-03-31T05:02:58.865Z,89.63
2019-03-31T05:04:05.011Z,90.67
2019-03-31T05:04:58.760Z,89.82
2019-03-31T05:05:58.757Z,87.93
2019-03-31T05:06:58.687Z,86.22
2019-03-31T05:07:58.645Z,84.23
2019-03-31T05:08:58.625Z,83.90
2019-03-31T05:09:58.606Z,84.56
2019-03-31T05:10:58.530Z,84.19
2019-03-31T05:11:58.477Z,84.71
2019-03-31T05:12:58.462Z,85.75
2019-03-31T05:13:58.385Z,86.27
2019-03-31T05:14:58.405Z,86.22
2019-03-31T05:15:58.309Z,86.36
2019-03-31T05:16:58.337Z,85.42
2019-03-31T05:17:58.223Z,84.38
2019-03-31T05:18:58.202Z,83.43
2019-03-31T05:19:58.153Z,85.42
2019-03-31T05:20:58.144Z,86.46
2019-03-31T05:21:58.066Z,87.40
2019-03-31T05:22:58.016Z,87.69
2019-03-31T05:23:57.977Z,87.74
2019-03-31T05:24:57.960Z,87.21
2019-03-31T05:25:57.912Z,86.83
2019-03-31T05:26:57.854Z,86.83
2019-03-31T05:27:57.810Z,88.17
2019-03-31T05:28:57.765Z,89.96
2019-03-31T05:29:57.731Z,89.96
2019-03-31T05:30:57.729Z,91.15
2019-03-31T05:31:57.643Z,90.48
2019-03-31T05:32:57.612Z,90.81
2019-03-31T05:33:57.565Z,90.25
2019-03-31T05:34:57.528Z,89.58
2019-03-31T05:35:57.489Z,89.49
2019-03-31T05:36:57.444Z,88.82
2019-03-31T05:37:57.396Z,88.92
2019-03-31T05:38:57.357Z,89.11
2019-03-31T05:39:57.330Z,89.68
2019-03-31T05:40:57.282Z,88.64
2019-03-31T05:41:57.268Z,87.50
2019-03-31T05:42:57.211Z,86.36
2019-03-31T05:44:05.536Z,86.03
2019-03-31T05:44:57.163Z,86.41
2019-03-31T05:45:57.072Z,87.50
2019-03-31T05:46:57.089Z,89.11
2019-03-31T05:47:57.001Z,90.25
2019-03-31T05:48:56.970Z,91.19
2019-03-31T05:49:56.898Z,91.00
2019-03-31T05:50:56.915Z,91.71
2019-03-31T05:51:56.834Z,91.71
2019-03-31T05:52:56.808Z,91.90
2019-03-31T05:53:56.790Z,91.24
2019-03-31T05:54:56.800Z,91.62
2019-03-31T05:55:56.730Z,92.38
2019-03-31T05:56:56.674Z,92.28
2019-03-31T05:57:56.619Z,91.43
2019-03-31T05:58:56.524Z,92.00
2019-03-31T05:59:56.546Z,91.47
2019-03-31T06:00:56.473Z,91.85
2019-03-31T06:01:56.464Z,93.65
2019-03-31T06:02:56.375Z,97.21
2019-03-31T06:03:56.357Z,97.11
2019-03-31T06:04:56.288Z,95.84
2019-03-31T06:05:56.284Z,94.79
2019-03-31T06:06:56.216Z,93.65
2019-03-31T06:07:56.206Z,94.42
2019-03-31T06:08:56.143Z,96.97
2019-03-31T06:09:56.084Z,99.25
2019-03-31T06:10:56.097Z,99.99
2019-03-31T06:11:56.037Z,99.99
2019-03-31T06:12:55.986Z,99.99
2019-03-31T06:13:55.939Z,99.99
2019-03-31T06:14:55.920Z,99.99
2019-03-31T06:15:55.860Z,99.99
2019-03-31T06:16:55.810Z,99.99
2019-03-31T06:17:55.855Z,99.99
2019-03-31T06:18:55.786Z,99.99
2019-03-31T06:19:55.704Z,99.99
2019-03-31T06:20:55.678Z,99.99
2019-03-31T06:21:55.718Z,99.99
2019-03-31T06:22:55.594Z,99.99
2019-03-31T06:23:55.558Z,99.99
2019-03-31T06:24:55.496Z,99.99
2019-03-31T06:25:55.480Z,99.99
2019-03-31T06:26:55.587Z,99.99
2019-03-31T06:27:55.390Z,99.99
2019-03-31T06:28:55.365Z,99.99
2019-03-31T06:29:55.496Z,99.99
2019-03-31T06:30:55.269Z,99.99
2019-03-31T06:31:55.236Z,99.99
2019-03-31T06:32:55.549Z,99.99
2019-03-31T06:33:55.163Z,99.99
2019-03-31T06:34:55.093Z,99.99
2019-03-31T06:35:55.105Z,99.99
2019-03-31T06:36:55.046Z,99.99
2019-03-31T06:37:54.996Z,99.99
2019-03-31T06:38:54.974Z,99.99
2019-03-31T06:39:54.936Z,99.99
2019-03-31T06:40:54.878Z,99.99
2019-03-31T06:41:54.826Z,99.99
2019-03-31T06:42:54.819Z,99.99
2019-03-31T06:43:54.766Z,99.99
2019-03-31T06:44:54.722Z,99.99
2019-03-31T06:45:54.730Z,99.99
2019-03-31T06:46:54.664Z,99.99
2019-03-31T06:47:54.628Z,99.99
2019-03-31T06:48:54.575Z,99.99
2019-03-31T06:49:54.622Z,99.99
2019-03-31T06:50:54.514Z,99.99
2019-03-31T06:51:54.503Z,99.99
2019-03-31T06:52:54.443Z,99.99
2019-03-31T06:53:54.386Z,99.99
2019-03-31T06:54:54.346Z,99.99
2019-03-31T06:55:54.329Z,99.99
2019-03-31T06:56:54.278Z,99.99
2019-03-31T06:57:54.231Z,99.99
2019-03-31T06:58:54.198Z,99.99
2019-03-31T06:59:54.167Z,99.99
2019-03-31T07:00:54.137Z,99.99
2019-03-31T07:01:54.157Z,99.99
2019-03-31T07:02:54.065Z,99.99
2019-03-31T07:03:54.043Z,99.99
2019-03-31T07:05:00.818Z,99.99
2019-03-31T07:05:53.970Z,99.99
2019-03-31T07:06:53.962Z,99.99
2019-03-31T07:07:53.919Z,99.99
2019-03-31T07:08:53.864Z,99.99
2019-03-31T07:09:53.855Z,99.99
2019-03-31T07:10:53.832Z,99.99
2019-03-31T07:11:53.780Z,99.99
2019-03-31T07:12:53.739Z,99.99
2019-03-31T07:13:53.705Z,99.99
2019-03-31T07:14:53.694Z,98.04
2019-03-31T07:15:53.647Z,99.99
2019-03-31T07:16:53.641Z,99.99
2019-03-31T07:17:53.632Z,99.99
2019-03-31T07:18:53.566Z,99.99
2019-03-31T07:19:53.524Z,99.67
2019-03-31T07:20:53.528Z,97.80
2019-03-31T07:21:53.548Z,93.73
2019-03-31T07:22:53.461Z,91.38
2019-03-31T07:23:53.436Z,90.08
2019-03-31T07:24:53.422Z,87.68
2019-03-31T07:25:53.393Z,88.07
2019-03-31T07:26:53.360Z,86.48
2019-03-31T07:27:53.327Z,86.19
2019-03-31T07:28:55.077Z,86.38
2019-03-31T07:29:53.272Z,86.43
2019-03-31T07:30:53.267Z,82.16
2019-03-31T07:31:53.310Z,81.45
2019-03-31T07:32:53.178Z,82.08
2019-03-31T07:33:53.177Z,83.38
2019-03-31T07:34:53.117Z,83.53
2019-03-31T07:35:53.098Z,85.45
2019-03-31T07:36:53.074Z,87.46
2019-03-31T07:37:53.043Z,85.72
2019-03-31T07:38:53.192Z,85.96
2019-03-31T07:39:53.032Z,84.66
2019-03-31T07:40:53.344Z,84.22
2019-03-31T07:41:53.268Z,83.54
2019-03-31T07:42:53.137Z,81.63
2019-03-31T07:43:52.911Z,80.57
2019-03-31T07:44:52.920Z,79.22
2019-03-31T07:45:55.685Z,77.83
2019-03-31T07:46:52.850Z,76.90
2019-03-31T07:47:52.819Z,76.07
2019-03-31T07:48:52.794Z,73.37
2019-03-31T07:49:52.768Z,75.82
2019-03-31T07:50:52.746Z,79.03
2019-03-31T07:51:52.740Z,75.45
2019-03-31T07:52:52.710Z,74.10
2019-03-31T07:53:52.715Z,74.10
2019-03-31T07:54:52.635Z,75.12
2019-03-31T07:55:52.607Z,76.27
2019-03-31T07:56:53.190Z,74.39
2019-03-31T07:57:54.538Z,73.37
2019-03-31T07:58:52.607Z,71.19
2019-03-31T07:59:52.517Z,70.93
2019-03-31T08:00:52.526Z,74.83
2019-03-31T08:01:52.462Z,76.40
2019-03-31T08:02:52.458Z,74.23
2019-03-31T08:03:52.432Z,74.50
2019-03-31T08:04:52.401Z,72.83
2019-03-31T08:05:52.393Z,72.85
2019-03-31T08:06:52.367Z,74.90
2019-03-31T08:07:52.337Z,75.45
2019-03-31T08:08:53.469Z,76.27
2019-03-31T08:09:52.316Z,76.14
2019-03-31T08:10:52.259Z,77.86
2019-03-31T08:11:52.237Z,77.38
2019-03-31T08:12:52.269Z,77.11
2019-03-31T08:13:55.124Z,78.88
2019-03-31T08:14:52.192Z,77.76
2019-03-31T08:15:52.153Z,76.57
2019-03-31T08:16:52.158Z,78.02
2019-03-31T08:17:52.092Z,79.16
2019-03-31T08:18:52.151Z,80.41
2019-03-31T08:19:52.079Z,77.86
2019-03-31T08:20:52.164Z,77.29
2019-03-31T08:21:52.166Z,77.33
2019-03-31T08:22:52.007Z,77.23
2019-03-31T08:23:51.988Z,76.46
2019-03-31T08:24:51.952Z,75.92
2019-03-31T08:25:51.958Z,75.38
2019-03-31T08:26:51.983Z,76.25
2019-03-31T08:27:51.879Z,73.41
2019-03-31T08:28:51.859Z,72.16
2019-03-31T08:30:00.137Z,74.46
2019-03-31T08:30:51.808Z,74.21
2019-03-31T08:31:51.789Z,74.40
2019-03-31T08:32:51.773Z,71.81
2019-03-31T08:33:51.728Z,71.17
2019-03-31T08:34:51.698Z,71.61
2019-03-31T08:35:51.669Z,71.73
2019-03-31T08:36:51.651Z,72.28
2019-03-31T08:37:51.627Z,73.10
2019-03-31T08:38:51.603Z,74.96
2019-03-31T08:39:51.640Z,74.93
2019-03-31T08:40:51.583Z,74.73
2019-03-31T08:41:51.541Z,76.62
2019-03-31T08:42:51.492Z,77.23
2019-03-31T08:43:51.490Z,77.13
2019-03-31T08:44:51.450Z,76.46
2019-03-31T08:45:51.439Z,75.98
2019-03-31T08:46:51.422Z,76.94
2019-03-31T08:47:51.391Z,76.21
2019-03-31T08:48:51.404Z,74.10
2019-03-31T08:49:51.334Z,75.50
2019-03-31T08:50:51.411Z,75.60
2019-03-31T08:51:51.299Z,76.23
2019-03-31T08:52:51.286Z,77.09
2019-03-31T08:53:51.289Z,78.09
2019-03-31T08:54:51.230Z,76.21
2019-03-31T08:55:51.208Z,74.43
2019-03-31T08:56:51.180Z,75.07
2019-03-31T08:57:51.219Z,72.67
2019-03-31T08:58:51.132Z,70.90
2019-03-31T08:59:51.130Z,70.52
2019-03-31T09:00:51.127Z,71.81
2019-03-31T09:01:51.077Z,70.84
2019-03-31T09:02:51.036Z,71.14
2019-03-31T09:03:51.021Z,69.79
2019-03-31T09:04:50.989Z,69.85
2019-03-31T09:06:01.711Z,70.68
2019-03-31T09:06:50.959Z,69.79
2019-03-31T09:07:50.953Z,65.78
2019-03-31T09:08:50.908Z,65.01
2019-03-31T09:09:50.881Z,66.62
2019-03-31T09:10:50.895Z,66.94
2019-03-31T09:11:51.526Z,69.85
2019-03-31T09:12:50.822Z,71.16
2019-03-31T09:13:50.838Z,72.18
2019-03-31T09:14:50.814Z,72.53
2019-03-31T09:15:50.766Z,75.23
2019-03-31T09:16:50.715Z,75.75
2019-03-31T09:17:54.011Z,75.08
2019-03-31T09:18:50.676Z,75.46
2019-03-31T09:19:50.681Z,76.82
2019-03-31T09:20:50.676Z,76.81
2019-03-31T09:21:50.621Z,75.56
2019-03-31T09:22:50.611Z,76.48
2019-03-31T09:23:50.591Z,77.78
2019-03-31T09:24:50.560Z,79.89
2019-03-31T09:25:50.531Z,81.48
2019-03-31T09:26:50.528Z,80.71
2019-03-31T09:27:50.493Z,79.93
2019-03-31T09:28:50.467Z,77.23
2019-03-31T09:29:50.435Z,73.79
2019-03-31T09:30:50.414Z,71.04
2019-03-31T09:31:50.390Z,70.37
2019-03-31T09:32:50.341Z,69.18
2019-03-31T09:33:50.333Z,68.38
2019-03-31T09:34:50.307Z,68.38
2019-03-31T09:35:50.291Z,69.37
2019-03-31T09:36:50.256Z,71.23
2019-03-31T09:37:50.222Z,72.19
2019-03-31T09:38:50.202Z,71.25
2019-03-31T09:39:50.178Z,70.97
2019-03-31T09:40:50.187Z,71.73
2019-03-31T09:41:50.136Z,72.08
2019-03-31T09:42:50.132Z,72.56
2019-03-31T09:43:50.128Z,71.83
2019-03-31T09:44:50.125Z,72.79
2019-03-31T09:45:50.112Z,72.75
2019-03-31T09:46:50.248Z,72.44
2019-03-31T09:47:50.011Z,72.58
2019-03-31T09:48:50.011Z,71.14
2019-03-31T09:49:49.948Z,72.50
2019-03-31T09:50:49.989Z,71.28
2019-03-31T09:51:49.929Z,74.96
2019-03-31T09:52:49.873Z,73.81
2019-03-31T09:53:49.851Z,74.19
2019-03-31T09:54:49.860Z,72.50
2019-03-31T09:55:49.801Z,71.76
2019-03-31T09:56:49.792Z,72.28
2019-03-31T09:57:49.764Z,72.63
2019-03-31T09:58:49.763Z,74.26
2019-03-31T09:59:49.751Z,73.68
2019-03-31T10:00:49.715Z,74.24
2019-03-31T10:01:49.693Z,76.92
2019-03-31T10:02:49.654Z,78.61
2019-03-31T10:03:49.627Z,80.48
2019-03-31T10:04:49.607Z,82.26
2019-03-31T10:05:49.592Z,82.22
2019-03-31T10:06:49.550Z,83.56
2019-03-31T10:07:49.537Z,83.98
2019-03-31T10:08:49.496Z,81.73
2019-03-31T10:09:49.493Z,80.71
2019-03-31T10:10:49.469Z,80.47
2019-03-31T10:11:49.428Z,78.55
2019-03-31T10:12:49.403Z,78.99
2019-03-31T10:13:49.361Z,78.99
2019-03-31T10:14:49.358Z,79.13
2019-03-31T10:15:49.336Z,77.34
2019-03-31T10:16:49.307Z,77.71
2019-03-31T10:17:49.284Z,74.51
2019-03-31T10:18:49.285Z,76.14
2019-03-31T10:19:49.297Z,76.94
2019-03-31T10:20:49.185Z,75.95
2019-03-31T10:21:49.165Z,75.50
2019-03-31T10:22:49.191Z,75.08
2019-03-31T10:23:49.112Z,75.46
2019-03-31T10:24:49.097Z,76.37
2019-03-31T10:25:49.060Z,74.16
2019-03-31T10:26:49.047Z,73.10
2019-03-31T10:27:49.125Z,73.00
2019-03-31T10:28:48.975Z,74.41
2019-03-31T10:29:48.967Z,75.04
2019-03-31T10:30:48.955Z,77.59
2019-03-31T10:31:48.938Z,76.92
2019-03-31T10:32:48.906Z,77.00
2019-03-31T10:33:48.878Z,76.14
2019-03-31T10:34:48.895Z,76.14
2019-03-31T10:35:48.830Z,77.29
2019-03-31T10:36:48.834Z,77.48
2019-03-31T10:37:48.831Z,77.13
2019-03-31T10:38:48.786Z,77.25
2019-03-31T10:39:48.742Z,78.20
2019-03-31T10:40:48.760Z,76.81
2019-03-31T10:41:48.661Z,75.75
2019-03-31T10:42:48.624Z,76.23
2019-03-31T10:43:48.643Z,75.62
2019-03-31T10:44:48.595Z,75.46
2019-03-31T10:45:48.621Z,75.90
2019-03-31T10:46:48.606Z,77.50
2019-03-31T10:47:48.533Z,78.51
2019-03-31T10:48:48.494Z,79.72
2019-03-31T10:49:48.476Z,79.37
2019-03-31T10:50:48.503Z,78.27
2019-03-31T10:51:48.399Z,78.20
2019-03-31T10:52:48.407Z,76.57
2019-03-31T10:53:48.349Z,77.11
2019-03-31T10:54:48.365Z,78.02
2019-03-31T10:55:48.288Z,77.15
2019-03-31T10:56:48.272Z,76.86
2019-03-31T10:57:48.254Z,76.44
2019-03-31T10:58:48.226Z,76.92
2019-03-31T10:59:48.189Z,78.45
2019-03-31T11:00:48.176Z,78.55
2019-03-31T11:01:48.173Z,77.11
2019-03-31T11:02:48.115Z,78.74
2019-03-31T11:03:48.205Z,80.08
2019-03-31T11:04:48.076Z,79.99
2019-03-31T11:05:48.098Z,79.89
2019-03-31T11:06:58.351Z,79.74
2019-03-31T11:07:48.040Z,79.07
2019-03-31T11:08:47.941Z,79.93
2019-03-31T11:09:47.930Z,77.53
2019-03-31T11:10:47.899Z,78.17
2019-03-31T11:11:47.912Z,76.98
2019-03-31T11:12:50.720Z,78.42
2019-03-31T11:13:47.820Z,78.61
2019-03-31T11:14:47.794Z,77.02
2019-03-31T11:15:47.756Z,76.71
2019-03-31T11:16:47.728Z,75.37
2019-03-31T11:17:47.698Z,74.66
2019-03-31T11:18:47.675Z,74.85
2019-03-31T11:19:47.650Z,74.72
2019-03-31T11:20:47.686Z,76.12
2019-03-31T11:21:47.595Z,75.35
2019-03-31T11:22:47.597Z,77.02
2019-03-31T11:23:47.632Z,76.15
2019-03-31T11:24:47.568Z,76.06
2019-03-31T11:25:47.520Z,75.10
2019-03-31T11:26:47.501Z,74.68
2019-03-31T11:27:47.470Z,75.83
2019-03-31T11:28:47.417Z,77.08
2019-03-31T11:29:47.383Z,78.89
2019-03-31T11:30:47.351Z,77.17
2019-03-31T11:31:47.338Z,77.17
2019-03-31T11:32:47.328Z,76.75
2019-03-31T11:33:47.381Z,76.81
2019-03-31T11:34:47.265Z,76.89
2019-03-31T11:35:47.373Z,77.08
2019-03-31T11:36:47.225Z,76.44
2019-03-31T11:37:47.192Z,77.15
2019-03-31T11:38:47.207Z,75.27
2019-03-31T11:39:47.138Z,74.83
2019-03-31T11:40:47.122Z,74.16
2019-03-31T11:41:47.085Z,71.76
2019-03-31T11:42:47.028Z,71.28
2019-03-31T11:43:46.991Z,70.96
2019-03-31T11:44:46.984Z,72.72
2019-03-31T11:45:47.039Z,70.61
2019-03-31T11:46:46.987Z,71.37
2019-03-31T11:47:47.082Z,71.05
2019-03-31T11:48:46.896Z,73.00
2019-03-31T11:49:46.858Z,72.49
2019-03-31T11:50:46.862Z,71.82
2019-03-31T11:51:46.776Z,72.39
2019-03-31T11:52:46.770Z,72.24
2019-03-31T11:53:46.735Z,71.41
2019-03-31T11:54:46.762Z,70.84
2019-03-31T11:55:46.710Z,70.07
2019-03-31T11:56:46.692Z,69.33
2019-03-31T11:57:46.647Z,71.66
2019-03-31T11:58:46.624Z,73.66
2019-03-31T11:59:49.535Z,74.91
2019-03-31T12:00:46.537Z,75.52
2019-03-31T12:01:46.522Z,74.66
2019-03-31T12:02:46.480Z,75.39
2019-03-31T12:03:46.453Z,77.08
2019-03-31T12:04:46.461Z,77.97
2019-03-31T12:05:46.403Z,78.17
2019-03-31T12:06:46.367Z,76.98
2019-03-31T12:07:47.482Z,78.99
2019-03-31T12:08:46.367Z,79.43
2019-03-31T12:09:46.318Z,80.24
2019-03-31T12:10:46.271Z,78.42
2019-03-31T12:11:46.285Z,78.51
2019-03-31T12:12:46.211Z,80.66
2019-03-31T12:13:46.200Z,78.03
2019-03-31T12:14:59.583Z,77.33
2019-03-31T12:15:46.145Z,77.17
2019-03-31T12:16:46.216Z,80.24
2019-03-31T12:17:46.100Z,78.03
2019-03-31T12:18:46.059Z,78.61
2019-03-31T12:19:48.741Z,76.50
2019-03-31T12:20:46.005Z,77.97
2019-03-31T12:21:45.990Z,76.21
2019-03-31T12:22:45.939Z,77.21
2019-03-31T12:23:45.947Z,75.96
2019-03-31T12:24:45.914Z,75.39
2019-03-31T12:25:46.019Z,75.90
2019-03-31T12:26:45.890Z,75.23
2019-03-31T12:27:45.993Z,73.86
2019-03-31T12:28:45.923Z,72.83
2019-03-31T12:29:45.941Z,73.97
2019-03-31T12:30:45.903Z,73.97
2019-03-31T12:31:45.828Z,74.58
2019-03-31T12:32:45.978Z,72.29
2019-03-31T12:33:46.087Z,72.48
2019-03-31T12:34:45.681Z,73.02
2019-03-31T12:35:45.648Z,74.22
2019-03-31T12:36:45.680Z,74.65
2019-03-31T12:37:45.601Z,75.79
2019-03-31T12:38:45.591Z,72.96
2019-03-31T12:39:45.633Z,74.16
2019-03-31T12:40:45.669Z,75.56
2019-03-31T12:41:45.488Z,76.65
2019-03-31T12:42:45.427Z,76.18
2019-03-31T12:43:45.513Z,75.95
2019-03-31T12:44:45.552Z,76.02
2019-03-31T12:45:46.128Z,76.89
2019-03-31T12:46:45.527Z,75.98
2019-03-31T12:47:45.392Z,76.65
2019-03-31T12:48:45.247Z,76.60
2019-03-31T12:49:45.331Z,76.18
2019-03-31T12:50:45.268Z,76.62
2019-03-31T12:51:45.301Z,77.38